East Pepperell, Massachusetts
Current Conditions -  °F | °C
As of 12:52 PM on Monday 26 Jan 2015 (Local Time) from KFIT Reporting Station
Overcast Overcast  
Wind Chill:   Ceiling: 2600
Heat Index: 20°   Visibility: 10mi
Dew Point:   Wind: 9mph
Humidity: 55%   Direction: 30°NNE
Pressure: 30.07"   Gusts: NA
Location:  42.6719°N, 71.6029°W
Report Text: KFIT 261752Z AUTO 03008KT 10SM OVC026 M07/M14 A3007 RMK AO2 SLP189 T10671144 11067 21128 58022
Loading
Personal Weather Stations






























Interactive Weather Map New forecast layout! Learn more

10-Day Weather Forecast

Advertisements
Track Severe Weather on mobile